Time;durP1;ratioP1;P1;durP2;ratioP2;P2;SDS_P1;SDS_P2;PMS_P1;PMS_P2;Temp;Humidity;BMP_temperature;BMP_pressure;BME280_temperature;BME280_humidity;BME280_pressure;Samples;Min_cycle;Max_cycle;Signal;HPM_P1;HPM_P2
2022/08/14 00:01:04;;;;;;;;;;;21.70;99.90;;;;;;5073761;28;19920;-63
2022/08/14 00:03:30;;;;;;;;;;;21.70;99.90;;;;;;5073592;28;20283;-63
2022/08/14 00:05:57;;;;;;;;;;;21.80;99.90;;;;;;5073398;28;19909;-62
2022/08/14 00:08:22;;;;;;;;;;;21.70;99.90;;;;;;5073659;28;19916;-63
2022/08/14 00:10:48;;;;;;;;;;;21.70;99.90;;;;;;5073356;28;19915;-63
2022/08/14 00:13:15;;;;;;;;;;;21.70;99.90;;;;;;5073335;28;19916;-63
2022/08/14 00:15:42;;;;;;;;;;;21.70;99.90;;;;;;5073354;28;19954;-63
2022/08/14 00:18:10;;;;;;;;;;;21.60;99.90;;;;;;5073575;28;19909;-63
2022/08/14 00:20:37;;;;;;;;;;;21.60;99.90;;;;;;5073292;28;20371;-63
2022/08/14 00:23:03;;;;;;;;;;;21.50;99.90;;;;;;5055241;28;19919;-63
2022/08/14 00:25:29;;;;;;;;;;;21.50;99.90;;;;;;5073542;28;20295;-63
2022/08/14 00:27:54;;;;;;;;;;;21.50;99.90;;;;;;5073523;28;19909;-63
2022/08/14 00:30:20;;;;;;;;;;;21.50;99.90;;;;;;5073190;28;19956;-63
2022/08/14 00:32:46;;;;;;;;;;;21.50;99.90;;;;;;5073446;28;20386;-63
2022/08/14 00:35:11;;;;;;;;;;;21.40;99.90;;;;;;5073154;28;19908;-63
2022/08/14 00:37:38;;;;;;;;;;;21.40;99.90;;;;;;5073115;28;20294;-63
2022/08/14 00:40:04;;;;;;;;;;;21.40;99.90;;;;;;5054969;28;19913;-63
2022/08/14 00:42:29;;;;;;;;;;;21.30;99.90;;;;;;5073246;28;20255;-63
2022/08/14 00:44:55;;;;;;;;;;;21.30;99.90;;;;;;5073359;28;19983;-63
2022/08/14 00:47:23;;;;;;;;;;;21.30;99.90;;;;;;5055449;28;19954;-63
2022/08/14 00:49:50;;;;;;;;;;;21.20;99.90;;;;;;5073313;28;20394;-63
2022/08/14 00:52:16;;;;;;;;;;;21.20;99.90;;;;;;5073252;28;20314;-63
2022/08/14 00:54:42;;;;;;;;;;;21.20;99.90;;;;;;5073214;28;19915;-63
2022/08/14 00:57:07;;;;;;;;;;;21.20;99.90;;;;;;5073207;28;20278;-63
2022/08/14 00:59:34;;;;;;;;;;;21.20;99.90;;;;;;5055317;28;19908;-64
2022/08/14 01:02:00;;;;;;;;;;;21.10;99.90;;;;;;5075027;28;20378;-63
2022/08/14 01:04:27;;;;;;;;;;;21.10;99.90;;;;;;5076794;28;19935;-63
2022/08/14 01:06:53;;;;;;;;;;;21.10;99.90;;;;;;5058660;28;20424;-63
2022/08/14 01:09:21;;;;;;;;;;;21.10;99.90;;;;;;5058854;28;19909;-63
2022/08/14 01:11:48;;;;;;;;;;;21.00;99.90;;;;;;5076649;28;19947;-63
2022/08/14 01:14:15;;;;;;;;;;;21.00;99.90;;;;;;5076633;28;19995;-63
2022/08/14 01:16:41;;;;;;;;;;;21.00;99.90;;;;;;5076253;28;19909;-63
2022/08/14 01:21:52;;;;;;;;;;;20.90;99.90;;;;;;5075885;28;20298;-63
2022/08/14 01:24:18;;;;;;;;;;;20.90;99.90;;;;;;5076234;28;19908;-63
2022/08/14 01:26:45;;;;;;;;;;;20.90;99.90;;;;;;5076381;28;19908;-63
2022/08/14 01:29:10;;;;;;;;;;;20.90;99.90;;;;;;5076280;28;19971;-63
2022/08/14 01:31:40;;;;;;;;;;;20.90;99.90;;;;;;5076091;28;19920;-64
2022/08/14 01:34:07;;;;;;;;;;;20.90;99.90;;;;;;5076271;28;19974;-63
2022/08/14 01:36:35;;;;;;;;;;;20.90;99.90;;;;;;5075903;28;19916;-63
2022/08/14 01:39:02;;;;;;;;;;;20.90;99.90;;;;;;5076141;28;20386;-66
2022/08/14 01:41:27;;;;;;;;;;;20.90;99.90;;;;;;5075736;28;19920;-63
2022/08/14 01:44:00;;;;;;;;;;;20.90;99.90;;;;;;5075993;28;19919;-63
2022/08/14 01:46:27;;;;;;;;;;;20.90;99.90;;;;;;5075787;28;19916;-63
2022/08/14 01:48:52;;;;;;;;;;;20.90;99.90;;;;;;5058103;28;19909;-63
2022/08/14 01:51:21;;;;;;;;;;;20.80;99.90;;;;;;5075998;28;19909;-63
2022/08/14 01:53:49;;;;;;;;;;;20.80;99.90;;;;;;5075916;28;20367;-63
2022/08/14 01:56:17;;;;;;;;;;;20.80;99.90;;;;;;5075855;28;20255;-63
2022/08/14 01:58:47;;;;;;;;;;;20.80;99.90;;;;;;5075833;28;19908;-63
2022/08/14 02:01:15;;;;;;;;;;;20.70;99.90;;;;;;5075394;28;19908;-64
2022/08/14 02:03:40;;;;;;;;;;;20.70;99.90;;;;;;5075393;28;19912;-64
2022/08/14 02:06:06;;;;;;;;;;;20.60;99.90;;;;;;5075417;28;19915;-64
2022/08/14 02:08:32;;;;;;;;;;;20.60;99.90;;;;;;5075326;28;19908;-63
2022/08/14 02:11:29;;;;;;;;;;;20.50;99.90;;;;;;5075574;28;19908;-63
2022/08/14 02:13:45;;;;;;;;;;;20.50;99.90;;;;;;5074716;28;19908;-64
2022/08/14 02:16:11;;;;;;;;;;;20.50;99.90;;;;;;5075149;28;19948;-65
2022/08/14 02:18:37;;;;;;;;;;;20.40;99.90;;;;;;5075209;28;19916;-64
2022/08/14 02:21:03;;;;;;;;;;;20.40;99.90;;;;;;5075406;28;19908;-63
2022/08/14 02:23:30;;;;;;;;;;;20.40;99.90;;;;;;5075235;28;19999;-63
2022/08/14 02:25:56;;;;;;;;;;;20.30;99.90;;;;;;5075273;28;20309;-64
2022/08/14 02:28:22;;;;;;;;;;;20.30;99.90;;;;;;5075178;28;20259;-63
2022/08/14 02:30:48;;;;;;;;;;;20.30;99.90;;;;;;5074854;28;19934;-63
2022/08/14 02:33:13;;;;;;;;;;;20.20;99.90;;;;;;5075067;28;19913;-64
2022/08/14 02:35:39;;;;;;;;;;;20.20;99.90;;;;;;5074847;28;19912;-63
2022/08/14 02:38:05;;;;;;;;;;;20.10;99.90;;;;;;5074696;28;19908;-63
2022/08/14 02:40:31;;;;;;;;;;;20.10;99.90;;;;;;5074687;28;19920;-63
2022/08/14 02:42:57;;;;;;;;;;;20.10;99.90;;;;;;5074856;28;19916;-63
2022/08/14 02:45:23;;;;;;;;;;;20.00;99.90;;;;;;5074875;28;19916;-63
2022/08/14 02:47:48;;;;;;;;;;;20.00;99.90;;;;;;5074561;28;19960;-63
2022/08/14 02:50:15;;;;;;;;;;;20.00;99.90;;;;;;5074745;28;19916;-63
2022/08/14 02:52:41;;;;;;;;;;;20.00;99.90;;;;;;5074658;28;19914;-63
2022/08/14 02:55:06;;;;;;;;;;;20.00;99.90;;;;;;5074632;28;20353;-63
2022/08/14 02:57:32;;;;;;;;;;;19.90;99.90;;;;;;5074326;28;19908;-64
2022/08/14 02:59:58;;;;;;;;;;;19.90;99.90;;;;;;5056433;28;19908;-64
2022/08/14 03:02:23;;;;;;;;;;;19.90;99.90;;;;;;5074469;28;19912;-64
2022/08/14 03:04:49;;;;;;;;;;;19.90;99.90;;;;;;5074585;28;19912;-64
2022/08/14 03:07:15;;;;;;;;;;;19.90;99.90;;;;;;5056395;28;19912;-63
2022/08/14 03:09:41;;;;;;;;;;;19.80;99.90;;;;;;5074495;28;20431;-63
2022/08/14 03:12:07;;;;;;;;;;;19.80;99.90;;;;;;5074618;28;19908;-62
2022/08/14 03:14:38;;;;;;;;;;;19.80;99.90;;;;;;5074589;28;19932;-62
2022/08/14 03:17:05;;;;;;;;;;;19.70;99.90;;;;;;5057673;28;19912;-63
2022/08/14 03:19:31;;;;;;;;;;;19.60;99.90;;;;;;5074500;28;19909;-63
2022/08/14 03:21:56;;;;;;;;;;;19.60;99.90;;;;;;5074485;28;19935;-63
2022/08/14 03:24:22;;;;;;;;;;;19.60;99.90;;;;;;5073568;28;19969;-63
2022/08/14 03:26:48;;;;;;;;;;;19.50;99.90;;;;;;5074102;28;19915;-63
2022/08/14 03:29:19;;;;;;;;;;;19.50;99.90;;;;;;5073898;28;19948;-63
2022/08/14 03:31:46;;;;;;;;;;;19.50;99.90;;;;;;5055857;28;20294;-63
2022/08/14 03:34:11;;;;;;;;;;;19.40;99.90;;;;;;5074060;28;19908;-63
2022/08/14 03:36:39;;;;;;;;;;;19.40;99.90;;;;;;5073829;28;20394;-64
2022/08/14 03:39:05;;;;;;;;;;;19.40;99.90;;;;;;5073658;28;20007;-63
2022/08/14 03:41:31;;;;;;;;;;;19.40;99.90;;;;;;5073545;28;19928;-63
2022/08/14 03:43:59;;;;;;;;;;;19.40;99.90;;;;;;5073181;28;21501;-63
2022/08/14 03:46:26;;;;;;;;;;;19.40;99.90;;;;;;5073634;28;19908;-63
2022/08/14 03:48:53;;;;;;;;;;;19.30;99.90;;;;;;5073883;28;19908;-64
2022/08/14 03:51:19;;;;;;;;;;;19.30;99.90;;;;;;5073875;28;19909;-63
2022/08/14 03:53:46;;;;;;;;;;;19.20;99.90;;;;;;5073814;28;19909;-63
2022/08/14 03:56:13;;;;;;;;;;;19.20;99.90;;;;;;5073731;28;19909;-63
2022/08/14 03:58:41;;;;;;;;;;;19.10;99.90;;;;;;5073768;28;19955;-64
2022/08/14 04:01:07;;;;;;;;;;;19.10;99.90;;;;;;5073757;28;20274;-63
2022/08/14 04:03:33;;;;;;;;;;;19.10;99.90;;;;;;5073680;28;19977;-63
2022/08/14 04:05:59;;;;;;;;;;;19.00;99.90;;;;;;5073449;28;20486;-63
2022/08/14 04:08:24;;;;;;;;;;;19.00;99.90;;;;;;5073427;28;20391;-64
2022/08/14 04:10:50;;;;;;;;;;;18.90;99.90;;;;;;5073482;28;19995;-64
2022/08/14 04:13:16;;;;;;;;;;;18.90;99.90;;;;;;5073392;28;19909;-64
2022/08/14 04:15:44;;;;;;;;;;;18.80;99.90;;;;;;5073628;28;19909;-64
2022/08/14 04:18:10;;;;;;;;;;;18.80;99.90;;;;;;5073577;28;20365;-63
2022/08/14 04:20:36;;;;;;;;;;;18.80;99.90;;;;;;5073572;28;19979;-63
2022/08/14 04:23:05;;;;;;;;;;;18.70;99.90;;;;;;5073226;28;19913;-63
2022/08/14 04:25:32;;;;;;;;;;;18.70;99.90;;;;;;5073511;28;19952;-64
2022/08/14 04:27:59;;;;;;;;;;;18.70;99.90;;;;;;5073540;28;19915;-64
2022/08/14 04:30:37;;;;;;;;;;;18.70;99.90;;;;;;5073450;28;19999;-64
2022/08/14 04:33:03;;;;;;;;;;;18.70;99.90;;;;;;5073415;28;19971;-64
2022/08/14 04:35:29;;;;;;;;;;;18.70;99.90;;;;;;5074668;28;19908;-63
2022/08/14 04:43:40;;;;;;;;;;;18.80;99.90;;;;;;5076635;28;20007;-64
2022/08/14 04:46:14;;;;;;;;;;;18.90;99.90;;;;;;5077117;28;19957;-63
2022/08/14 04:48:40;;;;;;;;;;;18.90;99.90;;;;;;5076845;28;20393;-64
2022/08/14 04:51:07;;;;;;;;;;;19.00;99.90;;;;;;5077127;28;19909;-63
2022/08/14 04:53:33;;;;;;;;;;;19.00;99.90;;;;;;5077003;28;19909;-63
2022/08/14 04:55:59;;;;;;;;;;;19.10;99.90;;;;;;5076673;28;19916;-63
2022/08/14 04:58:26;;;;;;;;;;;19.10;99.90;;;;;;5076949;28;19909;-64
2022/08/14 05:00:52;;;;;;;;;;;19.20;99.90;;;;;;5076874;28;20286;-64
2022/08/14 05:03:20;;;;;;;;;;;19.20;99.90;;;;;;5058445;28;19912;-64
2022/08/14 05:05:54;;;;;;;;;;;19.40;99.90;;;;;;5076520;28;20354;-64
2022/08/14 05:08:21;;;;;;;;;;;19.60;99.90;;;;;;5076540;28;20011;-63
2022/08/14 05:10:50;;;;;;;;;;;19.70;99.90;;;;;;5076712;28;19908;-63
2022/08/14 05:13:16;;;;;;;;;;;19.80;99.90;;;;;;5058451;28;20333;-64
2022/08/14 05:15:43;;;;;;;;;;;19.90;99.90;;;;;;5076360;28;19954;-64
2022/08/14 05:18:11;;;;;;;;;;;19.90;99.90;;;;;;5076511;28;20287;-64
2022/08/14 05:20:38;;;;;;;;;;;19.90;99.90;;;;;;5076273;28;19991;-64
2022/08/14 05:23:04;;;;;;;;;;;20.00;99.90;;;;;;5076364;28;20378;-63
2022/08/14 05:25:29;;;;;;;;;;;20.10;99.90;;;;;;5076228;28;19959;-64
2022/08/14 05:27:59;;;;;;;;;;;20.20;99.90;;;;;;5076374;28;19908;-65
2022/08/14 05:30:25;;;;;;;;;;;20.30;99.90;;;;;;5076383;28;20363;-64
2022/08/14 05:32:50;;;;;;;;;;;20.40;99.90;;;;;;5058132;28;19915;-63
2022/08/14 05:35:16;;;;;;;;;;;20.40;99.90;;;;;;5076036;28;19915;-64
2022/08/14 05:37:42;;;;;;;;;;;20.60;99.90;;;;;;5075956;28;19909;-63
2022/08/14 05:40:09;;;;;;;;;;;20.70;99.90;;;;;;5075715;28;19962;-63
2022/08/14 05:42:34;;;;;;;;;;;20.90;99.90;;;;;;5076109;28;19921;-64
2022/08/14 05:45:00;;;;;;;;;;;21.00;99.90;;;;;;5075769;28;19974;-64
2022/08/14 05:47:26;;;;;;;;;;;21.30;99.90;;;;;;5075336;28;19916;-64
2022/08/14 05:49:51;;;;;;;;;;;21.80;99.90;;;;;;5075731;28;20405;-63
2022/08/14 05:52:17;;;;;;;;;;;22.90;99.90;;;;;;5075682;28;19958;-64
2022/08/14 05:54:42;;;;;;;;;;;24.30;99.90;;;;;;5058105;28;19909;-64
2022/08/14 05:57:08;;;;;;;;;;;25.40;99.90;;;;;;5075828;28;19908;-64
2022/08/14 05:59:34;;;;;;;;;;;26.60;99.90;;;;;;5075803;28;19908;-64
2022/08/14 06:01:59;;;;;;;;;;;28.00;99.90;;;;;;5075664;28;19913;-64
2022/08/14 06:04:25;;;;;;;;;;;;;;;;;;5057515;28;20378;-64
2022/08/14 06:06:51;;;;;;;;;;;29.20;98.40;;;;;;5075646;28;19909;-64
2022/08/14 06:09:16;;;;;;;;;;;29.70;95.60;;;;;;5075380;28;19908;-64
2022/08/14 06:11:42;;;;;;;;;;;29.50;95.20;;;;;;5075340;28;19915;-64
2022/08/14 06:14:09;;;;;;;;;;;29.30;95.10;;;;;;5075472;28;19915;-63
2022/08/14 06:16:34;;;;;;;;;;;29.30;95.30;;;;;;5075460;28;19908;-64
2022/08/14 06:19:00;;;;;;;;;;;29.60;94.50;;;;;;5075425;28;19915;-64
2022/08/14 06:21:25;;;;;;;;;;;30.30;93.80;;;;;;5075425;28;19909;-64
2022/08/14 06:23:51;;;;;;;;;;;30.60;93.00;;;;;;5075019;28;20370;-64
2022/08/14 06:26:17;;;;;;;;;;;31.10;91.40;;;;;;5074985;28;19908;-64
2022/08/14 06:28:42;;;;;;;;;;;31.50;90.20;;;;;;5075231;28;19955;-64
2022/08/14 06:31:10;;;;;;;;;;;31.40;90.10;;;;;;5074911;28;20046;-64
2022/08/14 06:33:35;;;;;;;;;;;31.00;89.90;;;;;;5075120;28;19909;-64
2022/08/14 06:36:01;;;;;;;;;;;30.80;90.10;;;;;;5075078;28;19916;-64
2022/08/14 06:38:26;;;;;;;;;;;30.70;90.30;;;;;;5075045;28;20279;-65
2022/08/14 06:40:51;;;;;;;;;;;31.50;88.90;;;;;;5074423;28;20037;-64
2022/08/14 06:43:18;;;;;;;;;;;31.40;87.70;;;;;;5074863;28;19928;-64
2022/08/14 06:45:44;;;;;;;;;;;31.50;87.80;;;;;;5074856;28;19909;-65
2022/08/14 06:48:13;;;;;;;;;;;31.80;86.80;;;;;;5074816;28;19966;-64
2022/08/14 06:50:38;;;;;;;;;;;32.20;86.20;;;;;;5074815;28;19962;-64
2022/08/14 06:53:04;;;;;;;;;;;31.20;85.80;;;;;;5074719;28;19912;-64
2022/08/14 06:55:29;;;;;;;;;;;30.80;88.30;;;;;;5074396;28;20267;-64
2022/08/14 06:57:55;;;;;;;;;;;30.90;88.30;;;;;;5074283;28;19915;-64
2022/08/14 07:00:22;;;;;;;;;;;31.70;86.40;;;;;;5073760;28;19934;-64
2022/08/14 07:05:49;;;;;;;;;;;32.70;82.60;;;;;;5074018;28;19935;-64
2022/08/14 07:08:20;;;;;;;;;;;33.50;81.50;;;;;;5074450;28;20404;-64
2022/08/14 07:10:46;;;;;;;;;;;33.50;78.90;;;;;;5074419;28;20290;-64
2022/08/14 07:13:12;;;;;;;;;;;33.50;79.20;;;;;;5074344;28;20001;-64
2022/08/14 07:15:38;;;;;;;;;;;33.40;78.70;;;;;;5074335;28;19916;-64
2022/08/14 07:18:04;;;;;;;;;;;33.40;78.10;;;;;;5074272;28;20274;-64
2022/08/14 07:20:30;;;;;;;;;;;32.80;79.00;;;;;;5074245;28;20362;-64
2022/08/14 07:22:57;;;;;;;;;;;32.90;79.00;;;;;;5073918;28;20011;-64
2022/08/14 07:25:24;;;;;;;;;;;32.80;79.10;;;;;;5074220;28;20251;-64
2022/08/14 07:27:49;;;;;;;;;;;32.90;79.10;;;;;;5073906;28;19990;-64
2022/08/14 07:30:15;;;;;;;;;;;33.00;77.90;;;;;;5073802;28;19908;-64
2022/08/14 07:32:40;;;;;;;;;;;32.80;78.80;;;;;;5073745;28;19908;-64
2022/08/14 07:35:06;;;;;;;;;;;33.20;77.90;;;;;;5074067;28;19912;-64
2022/08/14 07:37:32;;;;;;;;;;;33.70;76.70;;;;;;5074027;28;20278;-64
2022/08/14 07:39:57;;;;;;;;;;;33.70;76.10;;;;;;5073719;28;20469;-65
2022/08/14 07:42:23;;;;;;;;;;;33.80;75.20;;;;;;5073470;28;19920;-65
2022/08/14 07:44:49;;;;;;;;;;;34.50;73.60;;;;;;5073967;28;20379;-64
2022/08/14 07:47:15;;;;;;;;;;;34.70;72.30;;;;;;5073874;28;20275;-64
2022/08/14 07:49:40;;;;;;;;;;;34.80;72.80;;;;;;5073870;28;20371;-64
2022/08/14 07:52:06;;;;;;;;;;;35.20;71.30;;;;;;5073878;28;19916;-65
2022/08/14 07:54:32;;;;;;;;;;;35.30;72.00;;;;;;5055544;28;20003;-64
2022/08/14 07:56:58;;;;;;;;;;;34.10;72.10;;;;;;5073811;28;19908;-65
2022/08/14 07:59:23;;;;;;;;;;;34.50;71.80;;;;;;5073796;28;19908;-64
2022/08/14 08:01:50;;;;;;;;;;;34.70;72.00;;;;;;5073702;28;19913;-64
2022/08/14 08:04:18;;;;;;;;;;;35.20;70.10;;;;;;5055523;28;20007;-64
2022/08/14 08:06:43;;;;;;;;;;;35.40;68.70;;;;;;5073709;28;19931;-62
2022/08/14 08:09:09;;;;;;;;;;;36.30;68.50;;;;;;5073451;28;19908;-64
2022/08/14 08:11:35;;;;;;;;;;;35.20;67.80;;;;;;5076897;28;19908;-64
2022/08/14 08:14:06;;;;;;;;;;;36.00;67.30;;;;;;5077832;28;19909;-64
2022/08/14 08:16:32;;;;;;;;;;;35.10;68.60;;;;;;5077767;28;19908;-63
2022/08/14 08:18:58;;;;;;;;;;;35.70;67.20;;;;;;5077784;28;20431;-64
2022/08/14 08:21:25;;;;;;;;;;;35.60;66.80;;;;;;5077673;28;19998;-63
2022/08/14 08:23:51;;;;;;;;;;;35.20;66.30;;;;;;5077574;28;20247;-63
2022/08/14 08:26:16;;;;;;;;;;;34.70;66.70;;;;;;5077593;28;19919;-64
2022/08/14 08:28:42;;;;;;;;;;;35.60;66.20;;;;;;5077556;28;19992;-63
2022/08/14 08:31:07;;;;;;;;;;;35.90;65.70;;;;;;5077281;28;19915;-64
2022/08/14 08:33:34;;;;;;;;;;;35.90;65.10;;;;;;5077144;28;19991;-63
2022/08/14 08:36:04;;;;;;;;;;;35.80;65.40;;;;;;5077427;28;20007;-63
2022/08/14 08:38:30;;;;;;;;;;;36.40;64.10;;;;;;5077317;28;19913;-64
2022/08/14 08:40:57;;;;;;;;;;;36.00;63.30;;;;;;5077052;28;20302;-63
2022/08/14 08:43:23;;;;;;;;;;;35.40;66.20;;;;;;5077200;28;19922;-64
2022/08/14 08:45:54;;;;;;;;;;;36.10;64.90;;;;;;5077157;28;20011;-64
2022/08/14 08:48:20;;;;;;;;;;;35.30;65.60;;;;;;5076838;28;19952;-63
2022/08/14 08:50:46;;;;;;;;;;;35.80;65.00;;;;;;5077069;28;19908;-63
2022/08/14 08:53:11;;;;;;;;;;;36.40;63.90;;;;;;5077032;28;19916;-63
2022/08/14 08:55:38;;;;;;;;;;;36.40;63.40;;;;;;5076744;28;19909;-64
2022/08/14 08:58:04;;;;;;;;;;;36.80;62.20;;;;;;5058873;28;19957;-63
2022/08/14 09:00:33;;;;;;;;;;;36.50;63.30;;;;;;5076851;28;19924;-63
2022/08/14 09:03:02;;;;;;;;;;;36.60;62.60;;;;;;5076541;28;19919;-65
2022/08/14 09:05:28;;;;;;;;;;;35.70;64.50;;;;;;5076822;28;19909;-64
2022/08/14 09:07:53;;;;;;;;;;;36.00;64.70;;;;;;5076815;28;20402;-64
2022/08/14 09:10:19;;;;;;;;;;;36.80;61.70;;;;;;5076480;28;19947;-63
2022/08/14 09:12:45;;;;;;;;;;;36.10;62.60;;;;;;5076333;28;20003;-64
2022/08/14 09:15:10;;;;;;;;;;;35.70;63.70;;;;;;5076385;28;20375;-63
2022/08/14 09:17:36;;;;;;;;;;;36.10;62.00;;;;;;5076622;28;19908;-64
2022/08/14 09:20:02;;;;;;;;;;;36.50;62.80;;;;;;5076275;28;19913;-63
2022/08/14 09:22:29;;;;;;;;;;;35.70;62.00;;;;;;5075264;28;19912;-63
2022/08/14 09:24:55;;;;;;;;;;;35.50;62.30;;;;;;5076206;28;19909;-63
2022/08/14 09:27:20;;;;;;;;;;;35.90;62.60;;;;;;5076158;28;19916;-64
2022/08/14 09:29:46;;;;;;;;;;;34.90;61.20;;;;;;5076156;28;19908;-64
2022/08/14 09:32:15;;;;;;;;;;;35.40;62.10;;;;;;5076118;28;19909;-64
2022/08/14 09:35:00;;;;;;;;;;;35.60;62.60;;;;;;5075993;28;20385;-63
2022/08/14 09:37:45;;;;;;;;;;;35.70;62.40;;;;;;5075923;28;20272;-63
2022/08/14 09:40:31;;;;;;;;;;;35.30;62.60;;;;;;5075623;28;20259;-63
2022/08/14 09:43:16;;;;;;;;;;;35.40;62.30;;;;;;5075745;28;19923;-63
2022/08/14 09:45:45;;;;;;;;;;;35.40;62.00;;;;;;5075701;28;19908;-63
2022/08/14 09:48:14;;;;;;;;;;;35.80;64.30;;;;;;5075690;28;19908;-63
2022/08/14 09:50:48;;;;;;;;;;;36.20;61.00;;;;;;5075994;28;19940;-64
2022/08/14 09:53:15;;;;;;;;;;;36.10;61.30;;;;;;5075929;28;20355;-64
2022/08/14 09:55:40;;;;;;;;;;;36.30;60.50;;;;;;5075913;28;19908;-64
2022/08/14 09:58:21;;;;;;;;;;;35.20;60.40;;;;;;5075861;28;19931;-64
2022/08/14 10:00:59;;;;;;;;;;;35.60;60.40;;;;;;5075550;28;19908;-64
2022/08/14 10:03:34;;;;;;;;;;;35.70;60.10;;;;;;5075689;28;19920;-64
2022/08/14 10:06:04;;;;;;;;;;;36.00;60.30;;;;;;5057470;28;19965;-64
2022/08/14 10:08:38;;;;;;;;;;;35.90;60.70;;;;;;5075396;28;19958;-65
2022/08/14 10:11:13;;;;;;;;;;;36.30;60.80;;;;;;5075330;28;19919;-63
2022/08/14 10:13:40;;;;;;;;;;;35.90;61.70;;;;;;5075619;28;20282;-64
2022/08/14 10:16:05;;;;;;;;;;;36.20;59.80;;;;;;5057244;28;19970;-64
2022/08/14 10:18:32;;;;;;;;;;;36.00;59.10;;;;;;5075235;28;19908;-64
2022/08/14 10:21:00;;;;;;;;;;;35.90;59.80;;;;;;5075419;28;19908;-64
2022/08/14 10:23:27;;;;;;;;;;;36.40;59.00;;;;;;5075255;28;19913;-64
2022/08/14 10:25:57;;;;;;;;;;;36.50;59.40;;;;;;5075274;28;19908;-64
2022/08/14 10:28:23;;;;;;;;;;;36.80;57.40;;;;;;5075014;28;19909;-64
2022/08/14 10:30:52;;;;;;;;;;;37.00;58.80;;;;;;5075200;28;20023;-64
2022/08/14 10:33:26;;;;;;;;;;;36.50;58.40;;;;;;5074942;28;20007;-65
2022/08/14 10:35:52;;;;;;;;;;;36.70;58.10;;;;;;5074822;28;20371;-64
2022/08/14 10:38:25;;;;;;;;;;;36.40;58.70;;;;;;5057301;28;19908;-64
2022/08/14 10:40:51;;;;;;;;;;;36.60;59.10;;;;;;5074727;28;20389;-64
2022/08/14 10:43:17;;;;;;;;;;;36.70;58.60;;;;;;5074906;28;19916;-64
2022/08/14 10:45:52;;;;;;;;;;;36.50;59.40;;;;;;5074528;28;19908;-64
2022/08/14 10:48:18;;;;;;;;;;;35.60;59.70;;;;;;5074865;28;19932;-64
2022/08/14 10:50:49;;;;;;;;;;;35.40;60.80;;;;;;5056784;28;19908;-64
2022/08/14 10:53:14;;;;;;;;;;;35.50;59.90;;;;;;5074488;28;19912;-63
2022/08/14 10:55:40;;;;;;;;;;;35.00;61.60;;;;;;5074761;28;19912;-64
2022/08/14 10:58:10;;;;;;;;;;;34.50;62.30;;;;;;5074691;28;19931;-64
2022/08/14 11:00:37;;;;;;;;;;;34.20;62.90;;;;;;5074310;28;19908;-63
2022/08/14 11:03:13;;;;;;;;;;;33.70;65.50;;;;;;5074475;28;19912;-64
2022/08/14 11:05:43;;;;;;;;;;;33.00;64.40;;;;;;5074285;28;19908;-63
2022/08/14 11:08:09;;;;;;;;;;;32.40;66.10;;;;;;5074238;28;19909;-63
2022/08/14 11:10:40;;;;;;;;;;;32.40;67.80;;;;;;5074114;28;19995;-64
2022/08/14 11:13:05;;;;;;;;;;;33.00;67.10;;;;;;5074373;28;20363;-63
2022/08/14 11:15:31;;;;;;;;;;;32.80;66.90;;;;;;5074347;28;19908;-63
2022/08/14 11:17:57;;;;;;;;;;;32.30;67.80;;;;;;5074315;28;19908;-63
2022/08/14 11:20:24;;;;;;;;;;;31.90;68.20;;;;;;5074275;28;19915;-63
2022/08/14 11:22:53;;;;;;;;;;;32.00;69.20;;;;;;5074126;28;19917;-63
2022/08/14 11:25:22;;;;;;;;;;;32.30;68.60;;;;;;5074224;28;19998;-63
2022/08/14 11:27:48;;;;;;;;;;;32.20;68.60;;;;;;5074128;28;19916;-63
2022/08/14 11:30:15;;;;;;;;;;;32.70;67.80;;;;;;5074125;28;20325;-63
2022/08/14 11:32:42;;;;;;;;;;;32.60;67.20;;;;;;5073843;28;19962;-63
2022/08/14 11:35:15;;;;;;;;;;;32.40;67.30;;;;;;5073783;28;19952;-63
2022/08/14 11:38:00;;;;;;;;;;;32.50;67.60;;;;;;5056570;28;19912;-63
2022/08/14 11:40:34;;;;;;;;;;;32.60;67.20;;;;;;5073477;28;19915;-63
2022/08/14 11:43:02;;;;;;;;;;;32.80;67.10;;;;;;5055635;28;19925;-63
2022/08/14 11:45:31;;;;;;;;;;;32.90;66.70;;;;;;5073363;28;20278;-63
2022/08/14 11:47:58;;;;;;;;;;;32.80;65.90;;;;;;5073629;28;19909;-63
2022/08/14 11:50:25;;;;;;;;;;;32.80;66.50;;;;;;5073633;28;19909;-63
2022/08/14 11:52:52;;;;;;;;;;;32.90;67.10;;;;;;5073850;28;19912;-63
2022/08/14 11:55:18;;;;;;;;;;;33.10;67.80;;;;;;5073858;28;20392;-63
2022/08/14 11:57:44;;;;;;;;;;;33.20;66.60;;;;;;5073620;28;19908;-64
2022/08/14 12:00:12;;;;;;;;;;;32.90;66.60;;;;;;5073598;28;20370;-64
2022/08/14 12:02:48;;;;;;;;;;;33.10;66.50;;;;;;5073745;28;19954;-63
2022/08/14 12:05:13;;;;;;;;;;;33.40;65.50;;;;;;5055543;28;19909;-63
2022/08/14 12:07:47;;;;;;;;;;;33.00;65.10;;;;;;5073768;28;20006;-63
2022/08/14 12:10:16;;;;;;;;;;;32.90;64.80;;;;;;5073420;28;20394;-63
2022/08/14 12:12:41;;;;;;;;;;;32.30;65.90;;;;;;5073398;28;19986;-63
2022/08/14 12:15:07;;;;;;;;;;;32.20;67.90;;;;;;5073404;28;19908;-64
2022/08/14 12:17:43;;;;;;;;;;;32.70;68.30;;;;;;5073656;28;19912;-64
2022/08/14 12:20:10;;;;;;;;;;;32.60;67.20;;;;;;5073635;28;19951;-63
2022/08/14 12:22:40;;;;;;;;;;;32.70;68.80;;;;;;5073553;28;19958;-64
2022/08/14 12:25:07;;;;;;;;;;;33.20;67.40;;;;;;5073307;28;19908;-63
2022/08/14 12:27:34;;;;;;;;;;;33.60;64.80;;;;;;5073238;28;20002;-64
2022/08/14 12:30:00;;;;;;;;;;;33.30;65.10;;;;;;5073256;28;19915;-63
2022/08/14 12:32:25;;;;;;;;;;;33.20;66.20;;;;;;5073510;28;19908;-63
2022/08/14 12:34:52;;;;;;;;;;;32.80;66.80;;;;;;5073451;28;19912;-63
2022/08/14 12:37:17;;;;;;;;;;;32.40;67.50;;;;;;5073466;28;19908;-63
2022/08/14 12:39:43;;;;;;;;;;;32.50;67.60;;;;;;5055217;28;19908;-63
2022/08/14 12:42:09;;;;;;;;;;;32.30;68.60;;;;;;5055029;28;20005;-63
2022/08/14 12:44:37;;;;;;;;;;;32.60;68.20;;;;;;5073134;28;20294;-64
2022/08/14 12:47:09;;;;;;;;;;;32.50;67.30;;;;;;5073345;28;19909;-64
2022/08/14 12:49:35;;;;;;;;;;;32.20;69.40;;;;;;5073368;28;19916;-63
2022/08/14 12:52:01;;;;;;;;;;;32.50;68.20;;;;;;5073345;28;19908;-63
2022/08/14 12:54:28;;;;;;;;;;;32.30;67.90;;;;;;5073318;28;20367;-63
2022/08/14 12:57:12;;;;;;;;;;;32.10;69.10;;;;;;5075043;28;19915;-63
2022/08/14 12:59:38;;;;;;;;;;;32.30;69.20;;;;;;5077031;28;19909;-63
2022/08/14 13:02:04;;;;;;;;;;;32.00;68.70;;;;;;5076836;28;20438;-63
2022/08/14 13:04:30;;;;;;;;;;;32.00;69.30;;;;;;5076899;28;19908;-63
2022/08/14 13:06:59;;;;;;;;;;;32.20;69.70;;;;;;5076495;28;20329;-63
2022/08/14 13:09:27;;;;;;;;;;;32.30;69.30;;;;;;5076452;28;19916;-63
2022/08/14 13:11:54;;;;;;;;;;;32.60;68.30;;;;;;5076703;28;19914;-63
2022/08/14 13:14:24;;;;;;;;;;;33.00;68.40;;;;;;5076442;28;20462;-63
2022/08/14 13:16:52;;;;;;;;;;;33.30;67.20;;;;;;5076636;28;19932;-63
2022/08/14 13:19:18;;;;;;;;;;;32.90;66.00;;;;;;5058819;28;19908;-63
2022/08/14 13:21:45;;;;;;;;;;;32.60;65.10;;;;;;5076319;28;20300;-63
2022/08/14 13:24:12;;;;;;;;;;;32.70;66.20;;;;;;5058253;28;20003;-63
2022/08/14 13:26:43;;;;;;;;;;;33.10;66.30;;;;;;5076461;28;19909;-63
2022/08/14 13:29:08;;;;;;;;;;;33.40;65.50;;;;;;5076097;28;19908;-63
2022/08/14 13:31:35;;;;;;;;;;;33.50;65.40;;;;;;5076343;28;19927;-63
2022/08/14 13:34:02;;;;;;;;;;;33.60;64.40;;;;;;5076331;28;20005;-63
2022/08/14 13:36:27;;;;;;;;;;;33.30;64.40;;;;;;5058178;28;20283;-63
2022/08/14 13:38:53;;;;;;;;;;;33.00;65.50;;;;;;5076236;28;19958;-63
2022/08/14 13:41:22;;;;;;;;;;;33.00;66.60;;;;;;5075856;28;19916;-64
2022/08/14 13:43:49;;;;;;;;;;;33.10;65.10;;;;;;5058756;28;20424;-63
2022/08/14 13:46:14;;;;;;;;;;;32.80;64.70;;;;;;5076110;28;20374;-63
2022/08/14 13:48:40;;;;;;;;;;;32.60;65.50;;;;;;5075740;28;19919;-63
2022/08/14 13:51:06;;;;;;;;;;;32.40;65.30;;;;;;5076049;28;19916;-63
2022/08/14 13:53:36;;;;;;;;;;;32.30;65.80;;;;;;5075990;28;19915;-64
2022/08/14 13:56:02;;;;;;;;;;;32.50;65.60;;;;;;5075955;28;20462;-63
2022/08/14 13:58:29;;;;;;;;;;;32.30;65.00;;;;;;5075927;28;19999;-63
2022/08/14 14:00:57;;;;;;;;;;;31.80;65.90;;;;;;5075779;28;19916;-63
2022/08/14 14:03:22;;;;;;;;;;;31.60;66.70;;;;;;5057539;28;19920;-63
2022/08/14 14:05:49;;;;;;;;;;;31.90;66.90;;;;;;5075773;28;19909;-63
2022/08/14 14:08:15;;;;;;;;;;;32.10;66.20;;;;;;5075105;28;20389;-63
2022/08/14 14:10:42;;;;;;;;;;;32.50;65.80;;;;;;5075447;28;19912;-63
2022/08/14 14:13:08;;;;;;;;;;;32.80;64.00;;;;;;5075355;28;19993;-63
2022/08/14 14:15:36;;;;;;;;;;;32.70;64.50;;;;;;5057515;28;20004;-63
2022/08/14 14:18:01;;;;;;;;;;;32.70;64.80;;;;;;5075498;28;19909;-63
2022/08/14 14:20:27;;;;;;;;;;;32.60;64.80;;;;;;5075238;28;20007;-64
2022/08/14 14:22:52;;;;;;;;;;;32.60;65.00;;;;;;5075105;28;19919;-63
2022/08/14 14:25:19;;;;;;;;;;;32.60;65.20;;;;;;5075109;28;19917;-63
2022/08/14 14:27:46;;;;;;;;;;;32.60;64.90;;;;;;5075104;28;19928;-63
2022/08/14 14:30:12;;;;;;;;;;;32.60;64.80;;;;;;5075282;28;19958;-64